Time;durP1;ratioP1;P1;durP2;ratioP2;P2;SDS_P1;SDS_P2;PMS_P1;PMS_P2;Temp;Humidity;BMP_temperature;BMP_pressure;BME280_temperature;BME280_humidity;BME280_pressure;Samples;Min_cycle;Max_cycle;Signal;HPM_P1;HPM_P2
2023/01/04 00:01:20;;;;;;;7.70;6.05;;;;;;;9.21;53.61;96066.81;4990467;28;20241;-57
2023/01/04 00:03:46;;;;;;;15.98;8.55;;;;;;;9.55;52.37;96064.63;4990344;28;20290;-59
2023/01/04 00:06:15;;;;;;;2.78;2.58;;;;;;;9.21;52.96;96058.97;4989969;28;20253;-60
2023/01/04 00:08:42;;;;;;;4.35;3.95;;;;;;;9.13;53.14;96074.16;4990131;28;20329;-57
2023/01/04 00:11:12;;;;;;;14.93;7.90;;;;;;;9.32;53.11;96078.38;4990273;28;20273;-58
2023/01/04 00:13:39;;;;;;;13.75;6.93;;;;;;;9.28;53.00;96069.38;4990390;28;20203;-56
2023/01/04 00:16:10;;;;;;;4.00;3.67;;;;;;;9.48;52.55;96071.75;4989886;28;21009;-59
2023/01/04 00:18:37;;;;;;;8.60;7.85;;;;;;;9.09;53.16;96063.31;4990320;28;20203;-53
2023/01/04 00:21:30;;;;;;;11.38;8.00;;;;;;;8.99;53.06;96072.69;4990175;28;20983;-57
2023/01/04 00:23:59;;;;;;;2.97;2.45;;;;;;;8.82;52.95;96067.22;4979804;28;20202;-62
2023/01/04 00:26:32;;;;;;;8.27;6.32;;;;;;;8.69;53.44;96066.53;4989789;28;20199;-62
2023/01/04 00:29:01;;;;;;;3.80;3.55;;;;;;;8.47;54.28;96079.19;4990206;28;20222;-58
2023/01/04 00:31:28;;;;;;;6.28;3.17;;;;;;;8.24;55.14;96071.13;4989201;28;20199;-57
2023/01/04 00:33:58;;;;;;;4.18;3.65;;;;;;;8.84;53.78;96059.16;4978104;28;20206;-59
2023/01/04 00:36:26;;;;;;;7.22;4.32;;;;;;;8.97;53.46;96074.72;4988376;28;20261;-61
2023/01/04 00:39:09;;;;;;;6.53;4.85;;;;;;;8.71;54.52;96073.16;4990035;28;20206;-57
2023/01/04 00:41:37;;;;;;;5.75;3.78;;;;;;;8.56;54.97;96071.91;4989617;28;20264;-55
2023/01/04 00:44:24;;;;;;;4.55;2.03;;;;;;;8.57;54.12;96065.66;4988775;28;20222;-53
2023/01/04 00:46:51;;;;;;;2.75;2.55;;;;;;;8.48;54.90;96070.34;4989950;28;20317;-56
2023/01/04 00:49:18;;;;;;;5.82;4.80;;;;;;;8.64;54.36;96069.00;4988843;28;20222;-57
2023/01/04 00:51:45;;;;;;;5.05;4.65;;;;;;;8.63;53.40;96073.41;4990014;28;20202;-59
2023/01/04 00:54:14;;;;;;;1.10;0.98;;;;;;;8.68;53.79;96065.75;4989707;28;20616;-59
2023/01/04 00:56:41;;;;;;;10.18;5.25;;;;;;;8.33;54.52;96075.09;4989751;28;20210;-57
2023/01/04 00:59:11;;;;;;;9.52;4.47;;;;;;;8.46;54.72;96077.59;4989486;28;20625;-59
2023/01/04 01:01:39;;;;;;;8.57;4.63;;;;;;;8.63;54.52;96077.88;4989528;28;20209;-58
2023/01/04 01:04:06;;;;;;;5.88;4.03;;;;;;;8.75;53.75;96087.41;4989276;28;20212;-53
2023/01/04 01:06:33;;;;;;;7.22;3.90;;;;;;;8.69;53.75;96083.03;4989472;28;20261;-58
2023/01/04 01:09:00;;;;;;;7.82;4.55;;;;;;;8.48;54.29;96088.63;4989055;28;20664;-60
2023/01/04 01:11:29;;;;;;;12.70;3.72;;;;;;;8.40;54.63;96098.53;4988641;28;20213;-59
2023/01/04 01:13:56;;;;;;;3.60;3.30;;;;;;;8.46;54.27;96103.72;4989417;28;20222;-56
2023/01/04 01:16:24;;;;;;;4.13;2.60;;;;;;;9.18;52.84;96103.88;4989044;28;20225;-57
2023/01/04 01:19:11;;;;;;;2.80;2.60;;;;;;;8.53;54.33;96103.66;4979018;28;20739;-57
2023/01/04 01:21:38;;;;;;;6.40;4.00;;;;;;;8.81;53.84;96102.19;4988636;28;20206;-57
2023/01/04 01:24:06;;;;;;;2.75;2.55;;;;;;;8.92;53.34;96108.56;4989424;28;20201;-56
2023/01/04 01:26:33;;;;;;;4.03;2.22;;;;;;;9.29;52.75;96104.97;4988840;28;20607;-53
2023/01/04 01:29:00;;;;;;;5.75;4.05;;;;;;;9.89;51.28;96095.41;4988778;28;20617;-60
2023/01/04 01:31:28;;;;;;;6.35;4.47;;;;;;;9.85;50.95;96099.47;4988766;28;20202;-58
2023/01/04 01:33:56;;;;;;;6.60;4.25;;;;;;;9.82;50.94;96095.47;4989411;28;20195;-60
2023/01/04 01:36:25;;;;;;;3.22;2.53;;;;;;;9.80;51.28;96079.19;4988766;28;20288;-63
2023/01/04 01:38:53;;;;;;;1.65;1.55;;;;;;;9.82;50.59;96081.56;4989556;28;20212;-59
2023/01/04 01:41:31;;;;;;;2.70;2.50;;;;;;;9.06;52.51;96081.28;4988554;28;20201;-59
2023/01/04 01:44:04;;;;;;;2.70;2.47;;;;;;;9.87;50.73;96081.72;4988700;28;20205;-54
2023/01/04 01:46:36;;;;;;;6.82;3.20;;;;;;;9.85;50.80;96086.38;4989161;28;20206;-58
2023/01/04 01:49:12;;;;;;;3.35;2.45;;;;;;;10.05;52.60;96084.31;4988940;28;20284;-58
2023/01/04 01:51:40;;;;;;;1.88;1.77;;;;;;;10.51;54.63;96073.94;4988538;28;20680;-50
2023/01/04 01:54:19;;;;;;;1.40;1.20;;;;;;;11.09;54.39;96074.75;4988776;28;20198;-60
2023/01/04 01:56:49;;;;;;;0.00;0.00;;;;;;;11.72;54.46;96060.84;4988952;28;20194;-60
2023/01/04 01:59:18;;;;;;;3.13;1.20;;;;;;;12.24;54.04;96060.50;4988675;28;20252;-59
2023/01/04 02:01:45;;;;;;;0.20;0.20;;;;;;;12.52;53.77;96057.03;4988977;28;20449;-54
2023/01/04 02:04:15;;;;;;;0.10;0.10;;;;;;;12.57;54.46;96037.91;4988734;28;20354;-58
2023/01/04 02:06:47;;;;;;;0.10;0.10;;;;;;;12.64;53.96;96047.25;4989250;28;20445;-59
2023/01/04 02:09:15;;;;;;;2.03;1.40;;;;;;;12.77;53.72;96049.50;4988827;28;20873;-58
2023/01/04 02:11:42;;;;;;;3.70;1.23;;;;;;;11.66;56.28;96056.56;4988997;28;20544;-54
2023/01/04 02:14:28;;;;;;;0.20;0.20;;;;;;;13.03;53.72;96050.72;4988341;28;20293;-60
2023/01/04 02:17:11;;;;;;;0.27;0.27;;;;;;;13.13;53.07;96049.03;4988615;28;20962;-60
2023/01/04 02:20:21;;;;;;;0.20;0.20;;;;;;;13.31;52.39;96049.78;4988279;28;20449;-58
2023/01/04 02:23:25;;;;;;;0.93;0.60;;;;;;;12.97;52.83;96054.31;4988429;28;21034;-60
2023/01/04 02:26:04;;;;;;;1.00;1.00;;;;;;;12.04;55.08;96054.88;4988332;28;20449;-58
2023/01/04 02:28:53;;;;;;;1.33;0.97;;;;;;;12.32;54.92;96059.31;4988834;28;20584;-62
2023/01/04 02:31:29;;;;;;;1.00;1.00;;;;;;;12.76;54.72;96052.38;4987791;28;20479;-55
2023/01/04 02:34:05;;;;;;;0.10;0.10;;;;;;;13.48;52.52;96043.44;4988464;28;20920;-52
2023/01/04 02:36:44;;;;;;;0.73;0.50;;;;;;;13.68;51.24;96045.50;4987925;28;20445;-59
2023/01/04 02:39:14;;;;;;;0.90;0.83;;;;;;;12.96;53.14;96048.22;4988432;28;20453;-56
2023/01/04 02:41:49;;;;;;;0.30;0.30;;;;;;;13.64;51.38;96041.75;4988159;28;20496;-55
2023/01/04 02:44:52;;;;;;;0.10;0.10;;;;;;;13.66;51.13;96047.56;4986702;28;20500;-60
2023/01/04 02:50:30;;;;;;;0.57;0.57;;;;;;;13.57;51.81;96043.78;4988574;28;20456;-56
2023/01/04 02:53:05;;;;;;;1.67;1.30;;;;;;;14.14;50.18;96035.16;4975282;28;20448;-57
2023/01/04 02:55:38;;;;;;;0.60;0.50;;;;;;;12.56;53.55;96042.38;4990222;28;20945;-59
2023/01/04 02:58:21;;;;;;;0.10;0.10;;;;;;;12.44;54.46;96044.28;4992035;28;20445;-55
2023/01/04 03:06:57;;;;;;;0.40;0.30;;;;;;;13.75;51.72;96041.63;4991923;28;20450;-58
2023/01/04 03:09:30;;;;;;;1.67;1.17;;;;;;;13.96;51.09;96040.78;4979226;28;20588;-60
2023/01/04 03:12:32;;;;;;;0.00;0.00;;;;;;;13.66;51.29;96042.31;4990940;28;20972;-55
2023/01/04 03:15:28;;;;;;;2.17;0.53;;;;;;;13.99;50.65;96034.25;4991351;28;20506;-57
2023/01/04 03:18:07;;;;;;;3.70;2.40;;;;;;;13.57;51.04;96033.25;4991504;28;20500;-57
2023/01/04 03:20:34;;;;;;;0.10;0.10;;;;;;;13.83;50.78;96035.91;4990851;28;20461;-59
2023/01/04 03:37:30;;;;;;;0.73;0.73;;;;;;;13.25;51.79;96048.13;4991297;28;20450;-56
2023/01/04 03:49:15;;;;;;;1.10;0.70;;;;;;;13.12;52.60;96060.59;4990707;28;20547;-55
2023/01/04 03:51:44;;;;;;;0.97;0.97;;;;;;;13.23;52.40;96058.09;4989123;28;20824;-57
2023/01/04 03:54:20;;;;;;;0.77;0.77;;;;;;;13.38;51.87;96050.38;4990870;28;20532;-56
2023/01/04 03:56:49;;;;;;;0.40;0.40;;;;;;;13.06;53.11;96053.66;4990742;28;20505;-62
2023/01/04 03:59:16;;;;;;;0.60;0.47;;;;;;;13.67;50.85;96052.59;4989974;28;20468;-62
2023/01/04 04:01:44;;;;;;;0.67;0.30;;;;;;;13.39;51.88;96047.53;4990664;28;20955;-58
2023/01/04 04:09:42;;;;;;;1.23;1.13;;;;;;;13.25;52.14;96066.56;4990011;28;20485;-58
2023/01/04 04:12:08;;;;;;;0.10;0.10;;;;;;;13.60;50.74;96064.34;4990301;28;21075;-57
2023/01/04 04:14:35;;;;;;;0.23;0.23;;;;;;;13.42;51.95;96072.56;4989996;28;20456;-58
2023/01/04 04:17:02;;;;;;;0.40;0.40;;;;;;;13.62;51.11;96063.06;4989944;28;20897;-54
2023/01/04 04:19:29;;;;;;;0.80;0.80;;;;;;;13.45;51.24;96077.34;4990234;28;20449;-58
2023/01/04 04:21:56;;;;;;;0.20;0.20;;;;;;;13.87;50.60;96070.47;4990175;28;20488;-57
2023/01/04 04:24:25;;;;;;;1.67;1.43;;;;;;;13.53;51.65;96069.00;4989592;28;20829;-58
2023/01/04 04:26:53;;;;;;;0.20;0.20;;;;;;;13.74;50.42;96070.84;4990532;28;20470;-59
2023/01/04 04:29:21;;;;;;;1.27;1.17;;;;;;;13.82;50.60;96075.69;4989794;28;20592;-57
2023/01/04 04:31:48;;;;;;;0.40;0.40;;;;;;;13.41;52.02;96078.88;4977660;28;20438;-58
2023/01/04 04:34:15;;;;;;;0.20;0.20;;;;;;;14.00;49.61;96076.16;4989280;28;20452;-59
2023/01/04 04:36:42;;;;;;;1.20;1.20;;;;;;;13.92;50.51;96073.94;4989939;28;20458;-60
2023/01/04 04:39:10;;;;;;;0.80;0.80;;;;;;;14.12;50.00;96083.94;4990076;28;20446;-60
2023/01/04 04:41:38;;;;;;;0.77;0.60;;;;;;;13.87;50.72;96081.00;4989905;28;20502;-60
2023/01/04 04:44:10;;;;;;;5.77;1.63;;;;;;;13.09;51.55;96082.13;4989852;28;20823;-59
2023/01/04 04:46:38;;;;;;;2.47;1.40;;;;;;;13.35;51.54;96083.28;4977317;28;20438;-56
2023/01/04 04:49:06;;;;;;;0.43;0.43;;;;;;;13.39;50.91;96078.31;4989641;28;20488;-56
2023/01/04 04:51:33;;;;;;;0.53;0.53;;;;;;;13.12;51.27;96084.28;4989632;28;20453;-56
2023/01/04 04:54:01;;;;;;;0.40;0.40;;;;;;;13.33;51.41;96095.88;4989245;28;20477;-60
2023/01/04 04:56:28;;;;;;;0.33;0.33;;;;;;;13.54;51.17;96087.19;4989372;28;20975;-60
2023/01/04 04:58:55;;;;;;;0.40;0.40;;;;;;;12.86;52.76;96090.19;4989610;28;20987;-58
2023/01/04 05:01:22;;;;;;;0.63;0.63;;;;;;;13.71;50.44;96084.50;4988037;28;20994;-58
2023/01/04 05:03:49;;;;;;;0.40;0.40;;;;;;;13.36;51.05;96099.88;4989335;28;20449;-58
2023/01/04 05:06:16;;;;;;;0.10;0.10;;;;;;;13.48;51.11;96092.66;4988930;28;20449;-59
2023/01/04 05:08:43;;;;;;;0.00;0.00;;;;;;;13.70;50.58;96090.81;4989548;28;20576;-57
2023/01/04 05:11:12;;;;;;;0.43;0.27;;;;;;;13.69;50.79;96105.03;4989305;28;20442;-57
2023/01/04 05:13:38;;;;;;;1.03;1.03;;;;;;;13.82;49.78;96096.75;4989024;28;20441;-58
2023/01/04 05:16:07;;;;;;;0.80;0.80;;;;;;;13.65;50.36;96106.56;4988590;28;20449;-62
2023/01/04 05:18:35;;;;;;;0.97;0.97;;;;;;;13.63;50.61;96103.38;4988116;28;20445;-58
2023/01/04 05:21:02;;;;;;;0.20;0.20;;;;;;;13.08;51.96;96106.06;4988910;28;20861;-61
2023/01/04 05:23:29;;;;;;;0.83;0.73;;;;;;;12.82;51.97;96099.59;4987703;28;20473;-54
2023/01/04 05:26:00;;;;;;;1.00;0.53;;;;;;;13.41;50.54;96103.34;4988390;28;20493;-56
2023/01/04 05:28:27;;;;;;;0.57;0.57;;;;;;;13.02;52.19;96105.19;4989159;28;20856;-61
2023/01/04 05:30:54;;;;;;;0.47;0.47;;;;;;;13.23;51.34;96091.28;4987896;28;20489;-59
2023/01/04 05:33:27;;;;;;;0.40;0.40;;;;;;;13.87;49.77;96109.97;4989149;28;20956;-58
2023/01/04 05:35:56;;;;;;;1.23;1.13;;;;;;;13.63;50.12;96111.28;4988343;28;20445;-60
2023/01/04 05:38:23;;;;;;;0.40;0.40;;;;;;;13.93;49.66;96111.63;4988771;28;20565;-56
2023/01/04 05:40:51;;;;;;;1.87;0.77;;;;;;;13.67;50.21;96123.72;4987915;28;20449;-56
2023/01/04 05:43:20;;;;;;;1.27;1.20;;;;;;;13.57;50.65;96122.78;4987768;28;20512;-57
2023/01/04 05:45:49;;;;;;;0.20;0.20;;;;;;;13.52;51.41;96120.09;4985552;28;20446;-55
2023/01/04 05:48:17;;;;;;;3.00;1.70;;;;;;;13.68;51.35;96119.25;4988180;28;20438;-56
2023/01/04 05:50:47;;;;;;;1.20;1.10;;;;;;;13.46;51.28;96121.06;4988786;28;20448;-55
2023/01/04 05:53:18;;;;;;;0.67;0.67;;;;;;;13.59;50.68;96125.97;4988382;28;20442;-55
2023/01/04 05:55:47;;;;;;;0.20;0.20;;;;;;;13.32;51.24;96127.72;4987067;28;21125;-54
2023/01/04 05:58:14;;;;;;;0.83;0.83;;;;;;;13.62;49.76;96110.47;4986856;28;20469;-60
2023/01/04 06:00:41;;;;;;;0.93;0.83;;;;;;;14.08;49.92;96125.00;4986330;28;20454;-56
2023/01/04 06:03:08;;;;;;;1.37;0.93;;;;;;;13.36;51.05;96105.16;4986058;28;20460;-57
2023/01/04 06:05:35;;;;;;;0.70;0.70;;;;;;;13.26;52.32;96126.03;4986546;28;20579;-59
2023/01/04 06:08:02;;;;;;;0.87;0.87;;;;;;;13.66;50.00;96121.31;4987171;28;20473;-61
2023/01/04 06:10:28;;;;;;;0.93;0.73;;;;;;;13.93;49.77;96122.19;4987432;28;20488;-56
2023/01/04 06:12:55;;;;;;;0.53;0.53;;;;;;;13.90;49.55;96122.69;4988736;28;20537;-53
2023/01/04 06:15:22;;;;;;;0.10;0.10;;;;;;;13.83;49.50;96127.34;4988146;28;21018;-53
2023/01/04 06:17:49;;;;;;;2.37;2.00;;;;;;;14.08;48.60;96125.81;4988407;28;21002;-57
2023/01/04 06:20:16;;;;;;;0.30;0.30;;;;;;;13.80;49.94;96133.09;4988466;28;20454;-59
2023/01/04 06:22:43;;;;;;;0.60;0.60;;;;;;;14.25;48.48;96136.22;4988709;28;20866;-61
2023/01/04 06:25:10;;;;;;;0.80;0.80;;;;;;;14.19;48.95;96137.25;4988230;28;20445;-58
2023/01/04 06:27:37;;;;;;;1.03;0.87;;;;;;;14.06;48.71;96140.25;4988779;28;21097;-55
2023/01/04 06:30:04;;;;;;;0.30;0.30;;;;;;;13.71;49.64;96139.81;4989657;28;20489;-55
2023/01/04 06:32:31;;;;;;;3.40;2.00;;;;;;;13.33;50.59;96147.72;4990484;28;20438;-57
2023/01/04 06:34:58;;;;;;;0.40;0.40;;;;;;;13.65;49.84;96141.59;4989130;28;20481;-50
2023/01/04 06:37:24;;;;;;;0.53;0.53;;;;;;;13.68;49.97;96141.13;4990328;28;20476;-62
2023/01/04 06:39:51;;;;;;;2.00;1.90;;;;;;;13.84;49.76;96150.00;4989987;28;21128;-58
2023/01/04 06:45:04;;;;;;;0.70;0.70;;;;;;;13.57;50.69;96159.66;4990284;28;20437;-58
2023/01/04 06:47:30;;;;;;;0.50;0.50;;;;;;;13.64;49.68;96155.00;4992322;28;20446;-57
2023/01/04 06:49:57;;;;;;;1.20;1.13;;;;;;;14.01;49.55;96148.88;4991661;28;20531;-54
2023/01/04 06:52:24;;;;;;;0.53;0.53;;;;;;;13.82;48.90;96146.81;4991668;28;20515;-60
2023/01/04 06:54:51;;;;;;;0.57;0.53;;;;;;;13.91;49.21;96145.34;4991617;28;20491;-59
2023/01/04 06:57:17;;;;;;;2.40;1.23;;;;;;;14.05;48.83;96151.84;4992144;28;20521;-57
2023/01/04 06:59:44;;;;;;;0.63;0.63;;;;;;;14.11;48.81;96146.38;4991562;28;20473;-58
2023/01/04 07:02:15;;;;;;;0.93;0.80;;;;;;;14.08;49.45;96151.34;4991606;28;20499;-57
2023/01/04 07:04:42;;;;;;;1.13;1.03;;;;;;;13.70;49.99;96156.69;4991394;28;20531;-59
2023/01/04 07:07:09;;;;;;;0.10;0.10;;;;;;;13.50;50.13;96153.78;4991882;28;21047;-53
2023/01/04 07:09:36;;;;;;;0.23;0.23;;;;;;;13.76;49.39;96150.41;4991646;28;20897;-56
2023/01/04 07:12:03;;;;;;;0.10;0.10;;;;;;;13.68;49.10;96161.38;4992138;28;20452;-53
2023/01/04 07:14:30;;;;;;;0.93;0.93;;;;;;;13.96;49.45;96158.56;4991373;28;20445;-61
2023/01/04 07:16:57;;;;;;;0.83;0.83;;;;;;;13.44;49.94;96160.00;4991894;28;20453;-58
2023/01/04 07:19:24;;;;;;;0.20;0.20;;;;;;;13.91;49.08;96155.88;4991796;28;20458;-61
2023/01/04 07:21:52;;;;;;;0.00;0.00;;;;;;;13.44;50.25;96165.25;4973343;28;20462;-58
2023/01/04 07:24:19;;;;;;;0.30;0.30;;;;;;;13.83;48.83;96170.28;4983850;28;20438;-54
2023/01/04 07:26:55;;;;;;;0.27;0.27;;;;;;;13.62;49.22;96178.16;4991880;28;20449;-58
2023/01/04 07:29:22;;;;;;;0.30;0.30;;;;;;;13.91;48.59;96179.59;4990807;28;20493;-58
2023/01/04 07:31:51;;;;;;;1.27;0.90;;;;;;;13.82;49.08;96181.88;4990317;28;20814;-58
2023/01/04 07:34:19;;;;;;;0.10;0.10;;;;;;;13.99;48.23;96160.75;4990812;28;20450;-57
2023/01/04 07:36:47;;;;;;;1.90;1.07;;;;;;;13.94;48.83;96168.59;4992051;28;20540;-56
2023/01/04 07:39:16;;;;;;;0.63;0.63;;;;;;;13.68;48.81;96177.19;4991072;28;20441;-61
2023/01/04 07:41:43;;;;;;;0.53;0.50;;;;;;;14.36;47.79;96174.88;4991164;28;20446;-55
2023/01/04 07:44:11;;;;;;;0.20;0.20;;;;;;;14.06;48.56;96179.78;4989966;28;20446;-60
2023/01/04 07:46:38;;;;;;;0.63;0.63;;;;;;;13.84;48.58;96181.63;4979672;28;20466;-57
2023/01/04 07:49:05;;;;;;;1.80;1.40;;;;;;;14.11;47.86;96182.47;4985718;28;20481;-56
2023/01/04 07:51:38;;;;;;;0.53;0.53;;;;;;;13.68;48.72;96185.09;4990859;28;21023;-59
2023/01/04 07:54:05;;;;;;;2.63;1.30;;;;;;;14.39;47.76;96177.03;4991098;28;21237;-59
2023/01/04 07:56:32;;;;;;;4.90;1.23;;;;;;;14.51;47.46;96171.59;4990608;28;21002;-59
2023/01/04 07:58:59;;;;;;;0.10;0.10;;;;;;;14.25;48.00;96186.31;4990989;28;20461;-59
2023/01/04 08:01:26;;;;;;;1.70;1.47;;;;;;;14.09;47.71;96187.19;4990907;28;20785;-56
2023/01/04 08:03:53;;;;;;;0.10;0.10;;;;;;;13.99;48.24;96192.34;4990560;28;20492;-59
2023/01/04 08:06:20;;;;;;;0.17;0.17;;;;;;;14.09;48.10;96184.56;4990386;28;20507;-57
2023/01/04 08:08:48;;;;;;;11.03;2.07;;;;;;;14.45;47.02;96178.66;4991084;28;20446;-58
2023/01/04 08:11:18;;;;;;;0.00;0.00;;;;;;;14.33;47.37;96180.66;4990507;28;20569;-58
2023/01/04 08:13:45;;;;;;;4.13;1.30;;;;;;;14.68;46.96;96188.16;4991013;28;20445;-54
2023/01/04 08:16:26;;;;;;;0.60;0.60;;;;;;;14.53;47.47;96186.16;4990390;28;20521;-60
2023/01/04 08:18:55;;;;;;;2.10;1.07;;;;;;;14.44;47.77;96190.28;4990568;28;21148;-61
2023/01/04 08:21:22;;;;;;;0.53;0.53;;;;;;;13.94;47.74;96187.03;4990028;28;20481;-57
2023/01/04 08:23:52;;;;;;;0.30;0.30;;;;;;;14.22;47.75;96192.09;4990405;28;20453;-59
2023/01/04 08:26:20;;;;;;;0.30;0.30;;;;;;;14.11;48.09;96190.38;4989793;28;21161;-55
2023/01/04 08:28:48;;;;;;;1.20;0.90;;;;;;;14.44;46.19;96187.63;4990207;28;20452;-56
2023/01/04 08:31:19;;;;;;;0.57;0.57;;;;;;;14.29;47.54;96195.38;4989871;28;20648;-56
2023/01/04 08:33:46;;;;;;;0.93;0.93;;;;;;;14.34;47.59;96192.00;4990229;28;20441;-53
2023/01/04 08:36:27;;;;;;;1.03;0.97;;;;;;;14.56;46.48;96196.19;4989607;28;20449;-59
2023/01/04 08:39:00;;;;;;;0.70;0.70;;;;;;;14.47;46.89;96192.41;4990171;28;20457;-58
2023/01/04 08:41:31;;;;;;;1.13;1.10;;;;;;;14.43;47.24;96191.34;4989855;28;20449;-58
2023/01/04 08:44:22;;;;;;;1.27;1.17;;;;;;;14.80;46.26;96186.13;4989559;28;20449;-58
2023/01/04 08:46:51;;;;;;;7.67;1.93;;;;;;;14.46;46.11;96198.75;4990345;28;20450;-56
2023/01/04 08:49:19;;;;;;;0.20;0.20;;;;;;;14.67;45.97;96197.88;4989452;28;20438;-59
2023/01/04 08:51:46;;;;;;;0.53;0.53;;;;;;;14.73;46.56;96196.91;4989522;28;20516;-56
2023/01/04 08:54:13;;;;;;;0.00;0.00;;;;;;;14.74;46.11;96198.50;4989720;28;20453;-55
2023/01/04 08:56:41;;;;;;;0.00;0.00;;;;;;;14.89;45.72;96195.22;4989609;28;20487;-58
2023/01/04 08:59:11;;;;;;;1.50;1.40;;;;;;;14.88;45.92;96191.78;4990065;28;20528;-58
2023/01/04 09:01:38;;;;;;;0.93;0.57;;;;;;;13.86;47.50;96201.44;4989754;28;20485;-57
2023/01/04 09:04:06;;;;;;;0.10;0.10;;;;;;;13.67;47.86;96208.00;4989762;28;20450;-56
2023/01/04 09:06:33;;;;;;;0.20;0.20;;;;;;;14.62;46.25;96200.50;4989502;28;20445;-58
2023/01/04 09:09:00;;;;;;;0.33;0.33;;;;;;;14.67;46.45;96207.66;4989465;28;20441;-56
2023/01/04 09:11:27;;;;;;;0.83;0.83;;;;;;;14.55;46.37;96202.53;4989598;28;20470;-59
2023/01/04 09:13:59;;;;;;;0.23;0.23;;;;;;;14.36;46.45;96188.06;4989787;28;20438;-56
2023/01/04 09:16:38;;;;;;;0.10;0.10;;;;;;;14.31;46.61;96198.56;4988925;28;20445;-57
2023/01/04 09:19:06;;;;;;;0.73;0.73;;;;;;;14.72;45.89;96200.59;4989874;28;20492;-60
2023/01/04 09:21:34;;;;;;;1.30;1.20;;;;;;;14.81;45.70;96182.47;4988313;28;20986;-57
2023/01/04 09:24:01;;;;;;;1.17;1.07;;;;;;;15.10;45.04;96197.78;4989128;28;20462;-53
2023/01/04 09:26:28;;;;;;;0.57;0.57;;;;;;;15.06;45.18;96186.13;4989280;28;20843;-59
2023/01/04 09:28:56;;;;;;;0.87;0.87;;;;;;;14.78;44.50;96173.19;4989477;28;20521;-59
2023/01/04 09:31:42;;;;;;;0.63;0.63;;;;;;;15.43;44.23;96182.72;4988686;28;20484;-56
2023/01/04 09:34:11;;;;;;;0.57;0.57;;;;;;;14.56;45.40;96180.38;4989391;28;21012;-60
2023/01/04 09:36:43;;;;;;;0.20;0.20;;;;;;;14.46;45.86;96182.13;4977252;28;20516;-55
2023/01/04 09:39:10;;;;;;;0.00;0.00;;;;;;;14.92;44.66;96178.88;4989719;28;20963;-60
2023/01/04 09:41:54;;;;;;;3.90;1.00;;;;;;;14.63;44.98;96186.28;4976998;28;20449;-57
2023/01/04 09:44:53;;;;;;;1.07;0.97;;;;;;;14.78;44.83;96178.47;4988817;28;20449;-58
2023/01/04 09:47:53;;;;;;;0.30;0.30;;;;;;;14.11;46.23;96193.03;4989295;28;20466;-58
2023/01/04 09:50:27;;;;;;;0.13;0.13;;;;;;;14.42;45.67;96186.28;4988378;28;20624;-56
2023/01/04 09:53:01;;;;;;;2.00;0.70;;;;;;;14.97;44.63;96187.63;4989448;28;20830;-54
2023/01/04 09:55:37;;;;;;;0.47;0.47;;;;;;;13.87;46.56;96186.38;4987209;28;20484;-54
2023/01/04 09:58:31;;;;;;;1.30;0.83;;;;;;;14.15;46.07;96173.03;4988969;28;20442;-54
2023/01/04 10:01:05;;;;;;;2.00;1.13;;;;;;;14.28;46.19;96172.69;4988503;28;21011;-59
2023/01/04 10:03:38;;;;;;;0.20;0.20;;;;;;;14.47;45.46;96171.31;4990453;28;20503;-57
2023/01/04 10:06:11;;;;;;;2.23;1.00;;;;;;;14.61;45.05;96177.81;4980453;28;20537;-60
2023/01/04 10:08:41;;;;;;;1.40;1.07;;;;;;;14.55;45.74;96176.16;4993094;28;20798;-55
2023/01/04 10:11:32;;;;;;;0.03;0.03;;;;;;;14.90;44.43;96175.69;4992919;28;20968;-57
2023/01/04 10:14:11;;;;;;;0.30;0.30;;;;;;;14.82;44.78;96179.56;4992664;28;20473;-58
2023/01/04 10:17:07;;;;;;;1.33;1.23;;;;;;;14.57;44.99;96174.06;4992556;28;20561;-57
2023/01/04 10:20:00;;;;;;;0.73;0.73;;;;;;;14.64;44.85;96166.75;4992720;28;20963;-56
2023/01/04 10:23:08;;;;;;;0.00;0.00;;;;;;;15.02;44.02;96166.56;4985045;28;20453;-59
2023/01/04 10:25:46;;;;;;;0.37;0.37;;;;;;;14.19;45.33;96169.69;4992396;28;20446;-57
2023/01/04 10:28:24;;;;;;;0.33;0.33;;;;;;;14.90;44.81;96163.28;4992786;28;20461;-55
2023/01/04 10:31:27;;;;;;;2.70;2.10;;;;;;;15.30;43.60;96160.16;4992163;28;21077;-61
2023/01/04 10:34:25;;;;;;;0.63;0.63;;;;;;;15.56;43.56;96169.06;4998440;28;20464;-56
2023/01/04 10:37:03;;;;;;;3.20;1.60;;;;;;;15.07;43.79;96169.22;4981708;28;20441;-61
2023/01/04 10:39:34;;;;;;;1.60;1.50;;;;;;;15.21;44.06;96159.84;4991828;28;20532;-56
2023/01/04 10:42:23;;;;;;;0.20;0.20;;;;;;;15.12;43.63;96158.72;4992859;28;20524;-57
2023/01/04 10:45:00;;;;;;;0.10;0.10;;;;;;;15.50;43.48;96160.31;4992031;28;20481;-58
2023/01/04 10:47:34;;;;;;;0.57;0.57;;;;;;;15.27;43.91;96162.53;4991929;28;20533;-57
2023/01/04 10:50:21;;;;;;;0.83;0.83;;;;;;;15.16;43.29;96154.50;4991821;28;20500;-60
2023/01/04 10:53:03;;;;;;;0.60;0.60;;;;;;;15.19;43.75;96164.59;4992181;28;20507;-59
2023/01/04 10:55:40;;;;;;;0.77;0.77;;;;;;;15.18;43.72;96168.25;4991319;28;20552;-55
2023/01/04 10:58:37;;;;;;;2.90;2.07;;;;;;;14.96;44.31;96159.63;4992017;28;20469;-55
2023/01/04 11:01:11;;;;;;;1.13;1.10;;;;;;;15.62;42.97;96162.78;4979440;28;20445;-57
2023/01/04 11:03:57;;;;;;;2.83;2.53;;;;;;;15.96;42.84;96150.78;4991975;28;20441;-60
2023/01/04 11:06:27;;;;;;;0.50;0.50;;;;;;;15.49;43.28;96142.88;4991108;28;20445;-53
2023/01/04 11:09:20;;;;;;;0.57;0.13;;;;;;;15.67;43.93;96146.94;4991743;28;20442;-58
2023/01/04 11:11:55;;;;;;;1.40;0.83;;;;;;;16.24;42.55;96142.41;4991778;28;20493;-59
2023/01/04 11:14:24;;;;;;;0.20;0.20;;;;;;;15.33;43.56;96127.94;4990834;28;20560;-58
2023/01/04 11:16:57;;;;;;;0.30;0.30;;;;;;;15.67;43.30;96139.03;4991055;28;20485;-60
2023/01/04 11:19:24;;;;;;;1.20;1.10;;;;;;;15.98;42.58;96128.31;4990976;28;20461;-57
2023/01/04 11:21:58;;;;;;;0.33;0.33;;;;;;;14.96;43.82;96133.22;4991747;28;20445;-53
2023/01/04 11:24:30;;;;;;;0.87;0.87;;;;;;;14.78;43.79;96128.34;4991079;28;20557;-60
2023/01/04 11:27:05;;;;;;;1.13;0.60;;;;;;;15.49;43.62;96120.97;4978752;28;20452;-53
2023/01/04 11:29:48;;;;;;;0.97;0.90;;;;;;;14.91;44.62;96130.56;4990875;28;20481;-57
2023/01/04 11:32:15;;;;;;;0.37;0.37;;;;;;;15.25;43.38;96121.31;4991659;28;20446;-54
2023/01/04 11:34:43;;;;;;;0.20;0.20;;;;;;;15.38;43.23;96117.44;4990607;28;20452;-57
2023/01/04 11:37:29;;;;;;;0.40;0.40;;;;;;;15.69;43.28;96098.06;4991226;28;20453;-57
2023/01/04 11:40:32;;;;;;;0.67;0.67;;;;;;;16.00;42.20;96109.56;4989696;28;20847;-57
2023/01/04 11:43:18;;;;;;;2.80;1.07;;;;;;;14.51;45.07;96114.38;5008124;28;20445;-59
2023/01/04 11:46:11;;;;;;;0.37;0.37;;;;;;;14.63;45.23;96107.13;4986063;28;20461;-54
2023/01/04 11:48:45;;;;;;;0.00;0.00;;;;;;;15.15;44.14;96100.13;4991461;28;20520;-56
2023/01/04 11:51:30;;;;;;;0.20;0.20;;;;;;;15.66;43.35;96109.16;4990535;28;20480;-59
2023/01/04 11:54:02;;;;;;;0.30;0.30;;;;;;;15.19;43.67;96103.84;4991350;28;20811;-56
2023/01/04 11:56:31;;;;;;;0.00;0.00;;;;;;;14.91;44.24;96106.81;4990754;28;20465;-58
2023/01/04 11:59:05;;;;;;;1.50;1.40;;;;;;;15.50;43.63;96107.50;4990992;28;20496;-56
2023/01/04 12:01:37;;;;;;;0.10;0.10;;;;;;;16.02;42.78;96099.53;4990407;28;20449;-57
2023/01/04 12:04:10;;;;;;;1.83;1.70;;;;;;;16.10;42.08;96091.06;4990367;28;20452;-57
2023/01/04 12:06:49;;;;;;;0.10;0.10;;;;;;;16.52;41.69;96098.84;4990556;28;20442;-59
2023/01/04 12:09:18;;;;;;;3.97;0.93;;;;;;;16.34;41.86;96083.47;4977749;28;20883;-61
2023/01/04 12:11:54;;;;;;;0.97;0.90;;;;;;;15.89;42.90;96089.44;4990199;28;20465;-55
2023/01/04 12:14:34;;;;;;;1.43;0.73;;;;;;;16.89;40.24;96073.75;4990191;28;20438;-55
2023/01/04 12:17:29;;;;;;;1.03;1.03;;;;;;;18.20;38.30;96073.34;4990529;28;20548;-57
2023/01/04 12:20:00;;;;;;;0.50;0.50;;;;;;;16.91;40.17;96095.44;4989891;28;20465;-60
2023/01/04 12:22:37;;;;;;;0.00;0.00;;;;;;;17.57;39.24;96087.41;4990441;28;20454;-57
2023/01/04 12:25:16;;;;;;;1.37;1.10;;;;;;;16.85;40.42;96093.84;4989799;28;21094;-61
2023/01/04 12:27:47;;;;;;;0.70;0.70;;;;;;;16.22;41.42;96089.00;4990523;28;20492;-56
2023/01/04 12:30:34;;;;;;;0.20;0.20;;;;;;;16.20;41.48;96085.81;4977408;28;20477;-56
2023/01/04 12:33:33;;;;;;;0.00;0.00;;;;;;;16.03;41.97;96082.59;4989966;28;20446;-60
2023/01/04 12:36:06;;;;;;;0.30;0.30;;;;;;;15.05;44.15;96078.91;4981112;28;20958;-58
2023/01/04 12:38:58;;;;;;;0.47;0.47;;;;;;;15.63;42.90;96085.09;4990354;28;20448;-56
2023/01/04 12:41:34;;;;;;;0.37;0.37;;;;;;;15.51;43.16;96087.94;4978735;28;20481;-58